Time;durP1;ratioP1;P1;durP2;ratioP2;P2;SDS_P1;SDS_P2;PMS_P1;PMS_P2;Temp;Humidity;BMP_temperature;BMP_pressure;BME280_temperature;BME280_humidity;BME280_pressure;Samples;Min_cycle;Max_cycle;Signal;HPM_P1;HPM_P2
2022/12/05 00:02:07;;;;;;;38.70;25.50;;;;;;;3.70;100.00;101639.13;5194712;28;20030;-68
2022/12/05 00:04:39;;;;;;;38.88;25.20;;;;;;;3.78;100.00;101644.84;5195507;28;20037;-68
2022/12/05 00:07:10;;;;;;;37.58;25.38;;;;;;;3.77;100.00;101642.31;5194478;28;20029;-68
2022/12/05 00:09:41;;;;;;;41.88;28.15;;;;;;;3.78;100.00;101654.34;5195644;28;20022;-69
2022/12/05 00:12:12;;;;;;;37.80;25.88;;;;;;;3.77;100.00;101655.28;5195520;28;20081;-69
2022/12/05 00:14:44;;;;;;;39.30;26.20;;;;;;;3.78;100.00;101657.78;5177618;28;20042;-69
2022/12/05 00:17:15;;;;;;;39.30;25.48;;;;;;;3.80;100.00;101660.34;5195117;28;20232;-69
2022/12/05 00:19:46;;;;;;;41.28;26.70;;;;;;;3.77;100.00;101657.88;5194674;28;20066;-68
2022/12/05 00:22:17;;;;;;;42.85;28.90;;;;;;;3.78;100.00;101655.19;5195433;28;20030;-69
2022/12/05 00:24:49;;;;;;;38.28;26.58;;;;;;;3.78;100.00;101656.94;5194320;28;20034;-69
2022/12/05 00:27:20;;;;;;;40.80;27.27;;;;;;;3.82;100.00;101650.72;5195250;28;20783;-68
2022/12/05 00:29:51;;;;;;;35.22;25.50;;;;;;;3.85;100.00;101658.38;5194604;28;20026;-69
2022/12/05 00:32:23;;;;;;;40.92;27.30;;;;;;;3.86;100.00;101653.13;5193918;28;20205;-68
2022/12/05 00:34:54;;;;;;;42.90;29.40;;;;;;;3.86;100.00;101652.28;5194470;28;20042;-69
2022/12/05 00:37:25;;;;;;;39.92;27.50;;;;;;;3.87;100.00;101652.22;5194396;28;20022;-69
2022/12/05 00:39:57;;;;;;;39.28;27.05;;;;;;;3.89;100.00;101650.38;5194264;28;20093;-68
2022/12/05 00:42:28;;;;;;;40.33;28.42;;;;;;;3.88;100.00;101648.72;5193292;28;20030;-69
2022/12/05 00:44:59;;;;;;;42.42;27.52;;;;;;;3.89;100.00;101645.19;5194976;28;20026;-68
2022/12/05 00:47:34;;;;;;;40.22;27.67;;;;;;;3.93;100.00;101645.06;5194187;28;20031;-70
2022/12/05 00:50:06;;;;;;;42.40;28.45;;;;;;;3.86;100.00;101640.19;5192495;28;20045;-70
2022/12/05 00:52:38;;;;;;;40.15;29.38;;;;;;;3.90;100.00;101651.22;5194968;28;20193;-70
2022/12/05 00:55:09;;;;;;;40.65;28.27;;;;;;;3.93;100.00;101648.50;5194512;28;20113;-70
2022/12/05 00:57:40;;;;;;;43.42;29.45;;;;;;;3.91;100.00;101637.38;5192163;28;20030;-70
2022/12/05 01:00:12;;;;;;;45.75;28.92;;;;;;;3.84;100.00;101634.22;5191304;28;20158;-70
2022/12/05 01:02:43;;;;;;;40.38;27.02;;;;;;;3.90;100.00;101653.81;5177447;28;20096;-70
2022/12/05 01:05:15;;;;;;;40.78;28.80;;;;;;;3.92;100.00;101641.66;5194454;28;20076;-70
2022/12/05 01:07:46;;;;;;;44.83;28.50;;;;;;;3.94;100.00;101646.75;5192959;28;20022;-69
2022/12/05 01:10:17;;;;;;;41.03;29.00;;;;;;;3.94;100.00;101649.34;5193983;28;20523;-70
2022/12/05 01:12:48;;;;;;;41.53;27.90;;;;;;;3.94;100.00;101647.63;5194402;28;20026;-69
2022/12/05 01:15:20;;;;;;;41.25;27.50;;;;;;;3.96;100.00;101653.56;5192190;28;20030;-69
2022/12/05 01:17:51;;;;;;;42.65;29.55;;;;;;;3.96;100.00;101650.13;5193861;28;20027;-70
2022/12/05 01:20:22;;;;;;;43.70;29.38;;;;;;;3.97;100.00;101660.41;5193601;28;20066;-70
2022/12/05 01:22:53;;;;;;;44.03;30.45;;;;;;;3.96;100.00;101660.50;5194988;28;20645;-70
2022/12/05 01:25:25;;;;;;;39.03;29.42;;;;;;;3.93;100.00;101658.03;5192438;28;20416;-69
2022/12/05 01:27:56;;;;;;;42.15;28.52;;;;;;;3.99;100.00;101669.00;5193917;28;20474;-70
2022/12/05 01:30:27;;;;;;;45.85;30.63;;;;;;;4.01;100.00;101661.13;5192408;28;20138;-69
2022/12/05 01:32:59;;;;;;;43.92;31.65;;;;;;;4.01;100.00;101668.91;5174648;28;20034;-70
2022/12/05 01:35:32;;;;;;;42.97;29.70;;;;;;;4.06;100.00;101657.44;5193737;28;20088;-69
2022/12/05 01:38:04;;;;;;;41.55;27.92;;;;;;;3.93;100.00;101660.63;5192569;28;20515;-69
2022/12/05 01:40:36;;;;;;;42.20;29.73;;;;;;;3.94;100.00;101660.59;5192355;28;20766;-70
2022/12/05 01:43:15;;;;;;;46.00;29.40;;;;;;;4.08;100.00;101668.56;5192087;28;20022;-71
2022/12/05 01:45:46;;;;;;;44.63;29.92;;;;;;;3.99;100.00;101663.81;5193489;28;20038;-67
2022/12/05 01:48:26;;;;;;;44.70;30.40;;;;;;;4.13;100.00;101681.34;5193088;28;20046;-68
2022/12/05 01:50:59;;;;;;;41.13;29.33;;;;;;;4.05;100.00;101673.91;5193196;28;20029;-68
2022/12/05 01:53:30;;;;;;;40.95;29.77;;;;;;;4.05;100.00;101679.09;5194104;28;20026;-68
2022/12/05 01:56:02;;;;;;;37.75;29.08;;;;;;;4.04;100.00;101679.16;5191551;28;20030;-68
2022/12/05 01:58:37;;;;;;;43.97;30.95;;;;;;;4.12;100.00;101682.25;5193519;28;20081;-68
2022/12/05 02:01:11;;;;;;;40.13;29.30;;;;;;;4.11;100.00;101680.56;5193677;28;20084;-68
2022/12/05 02:03:43;;;;;;;40.22;28.75;;;;;;;4.10;100.00;101684.06;5192541;28;20058;-68
2022/12/05 02:06:15;;;;;;;39.67;28.50;;;;;;;4.10;100.00;101684.91;5192833;28;20250;-68
2022/12/05 02:08:46;;;;;;;38.47;28.23;;;;;;;4.09;100.00;101684.97;5192122;28;20092;-67
2022/12/05 02:11:18;;;;;;;40.30;28.05;;;;;;;4.09;100.00;101688.41;5193039;28;20030;-67
2022/12/05 02:14:16;;;;;;;41.80;28.92;;;;;;;4.29;100.00;101687.53;5193542;28;20034;-68
2022/12/05 02:17:09;;;;;;;41.58;27.77;;;;;;;4.24;100.00;101678.25;5192903;28;20105;-67
2022/12/05 02:20:02;;;;;;;42.97;28.13;;;;;;;4.23;100.00;101687.78;5192849;28;20068;-68
2022/12/05 02:22:51;;;;;;;43.10;28.40;;;;;;;4.32;100.00;101683.97;5193062;28;20070;-67
2022/12/05 02:25:45;;;;;;;43.45;28.60;;;;;;;4.27;100.00;101689.34;5192619;28;20033;-68
2022/12/05 02:28:28;;;;;;;39.47;27.63;;;;;;;4.18;100.00;101683.72;5193009;28;20025;-68
2022/12/05 02:31:09;;;;;;;41.03;29.73;;;;;;;4.22;100.00;101674.91;5191677;28;20365;-68
2022/12/05 02:33:52;;;;;;;40.97;28.10;;;;;;;4.22;100.00;101680.09;5192268;28;20042;-68
2022/12/05 02:36:37;;;;;;;43.35;29.10;;;;;;;4.26;100.00;101677.28;5192381;28;20026;-68
2022/12/05 02:39:18;;;;;;;41.13;30.08;;;;;;;4.21;100.00;101681.00;5193152;28;20057;-68
2022/12/05 02:41:57;;;;;;;40.10;29.23;;;;;;;4.20;100.00;101664.59;5192529;28;20038;-67
2022/12/05 02:44:38;;;;;;;40.38;28.63;;;;;;;4.17;100.00;101667.34;5192135;28;20458;-67
2022/12/05 02:47:13;;;;;;;39.20;29.00;;;;;;;4.18;100.00;101675.94;5190743;28;20061;-68
2022/12/05 02:49:44;;;;;;;45.80;31.40;;;;;;;4.13;100.00;101676.16;5192510;28;20140;-68
2022/12/05 02:52:16;;;;;;;40.90;26.80;;;;;;;4.13;100.00;101678.75;5192206;28;20105;-67
2022/12/05 02:54:50;;;;;;;42.75;29.42;;;;;;;4.17;100.00;101677.72;5194130;28;20030;-68
2022/12/05 02:57:23;;;;;;;40.25;27.90;;;;;;;4.19;100.00;101680.22;5194132;28;20026;-67
2022/12/05 02:59:54;;;;;;;44.17;29.92;;;;;;;4.22;100.00;101683.53;5196677;28;20113;-67
2022/12/05 03:02:31;;;;;;;41.08;28.02;;;;;;;4.21;100.00;101687.03;5195358;28;20444;-68
2022/12/05 03:05:46;;;;;;;44.47;28.23;;;;;;;4.52;100.00;101681.28;5195262;28;20034;-68
2022/12/05 03:08:22;;;;;;;41.20;28.40;;;;;;;4.27;100.00;101685.91;5128887;29;20027;-68
2022/12/05 03:10:55;;;;;;;42.97;29.38;;;;;;;4.15;100.00;101682.94;5191535;28;20431;-68
2022/12/05 03:13:33;;;;;;;43.78;29.27;;;;;;;4.17;100.00;101680.31;5196573;28;20151;-68
2022/12/05 03:16:12;;;;;;;43.30;29.48;;;;;;;4.22;100.00;101685.28;5177594;28;20139;-67
2022/12/05 03:18:50;;;;;;;43.67;29.30;;;;;;;4.18;100.00;101676.78;5197330;28;20026;-67
2022/12/05 03:21:32;;;;;;;42.63;29.98;;;;;;;4.22;100.00;101680.09;5196352;28;20129;-68
2022/12/05 03:24:10;;;;;;;44.80;30.00;;;;;;;4.21;100.00;101673.22;5195964;28;20018;-68
2022/12/05 03:27:12;;;;;;;40.00;28.85;;;;;;;4.35;100.00;101684.63;5196764;28;20071;-68
2022/12/05 03:30:03;;;;;;;41.60;28.70;;;;;;;4.27;100.00;101675.53;5196141;28;20072;-68
2022/12/05 03:32:56;;;;;;;39.78;28.15;;;;;;;4.29;100.00;101673.72;5195982;28;20033;-67
2022/12/05 03:35:36;;;;;;;42.10;28.97;;;;;;;4.27;100.00;101676.38;5196597;28;20062;-69
2022/12/05 03:38:14;;;;;;;45.38;29.30;;;;;;;4.27;100.00;101676.38;5196789;28;20026;-69
2022/12/05 03:40:59;;;;;;;42.35;28.77;;;;;;;4.32;100.00;101673.59;5195804;28;20026;-70
2022/12/05 03:43:56;;;;;;;40.17;29.05;;;;;;;4.32;100.00;101668.41;5196816;28;20062;-68
2022/12/05 03:46:40;;;;;;;39.60;27.15;;;;;;;4.31;100.00;101671.88;5195477;28;20026;-68
2022/12/05 03:49:20;;;;;;;43.10;28.98;;;;;;;4.27;100.00;101678.13;5195086;28;20105;-68
2022/12/05 03:52:09;;;;;;;45.15;29.23;;;;;;;4.35;100.00;101669.06;5196643;28;20105;-68
2022/12/05 03:54:45;;;;;;;41.95;28.33;;;;;;;4.29;100.00;101664.19;5196188;28;20031;-68
2022/12/05 03:57:35;;;;;;;46.10;29.67;;;;;;;4.36;100.00;101675.13;5193584;28;20096;-68
2022/12/05 04:00:11;;;;;;;41.70;28.50;;;;;;;4.25;100.00;101677.38;5195661;28;20057;-67
2022/12/05 04:03:03;;;;;;;42.92;27.92;;;;;;;4.33;100.00;101680.44;5196145;28;20034;-67
2022/12/05 04:05:40;;;;;;;40.97;28.10;;;;;;;4.25;100.00;101679.97;5194443;28;20030;-68
2022/12/05 04:08:39;;;;;;;45.80;29.20;;;;;;;4.36;100.00;101682.91;5195788;28;20018;-68
2022/12/05 04:11:16;;;;;;;43.92;27.55;;;;;;;4.26;100.00;101684.22;5191665;28;20034;-68
2022/12/05 04:14:11;;;;;;;42.38;28.83;;;;;;;4.44;100.00;101685.16;5194440;28;20022;-67
2022/12/05 04:17:04;;;;;;;41.20;27.08;;;;;;;4.30;100.00;101683.19;5195668;28;20065;-68
2022/12/05 04:22:34;;;;;;;42.17;27.58;;;;;;;4.26;100.00;101689.41;5195920;28;20031;-67
2022/12/05 04:28:12;;;;;;;40.75;27.65;;;;;;;4.34;100.00;101690.75;5196117;28;20042;-68
2022/12/05 04:30:49;;;;;;;40.92;28.27;;;;;;;4.29;100.00;101691.88;5194753;28;20395;-68
2022/12/05 04:33:39;;;;;;;36.58;26.17;;;;;;;4.25;100.00;101690.34;5195825;28;20041;-68
2022/12/05 04:36:26;;;;;;;36.10;26.00;;;;;;;4.31;100.00;101695.22;5194504;28;20030;-70
2022/12/05 04:39:12;;;;;;;41.30;27.15;;;;;;;4.39;100.00;101690.53;5195658;28;20034;-70
2022/12/05 04:41:56;;;;;;;41.65;27.77;;;;;;;4.26;100.00;101694.59;5195246;28;20061;-70
2022/12/05 04:44:33;;;;;;;38.80;26.38;;;;;;;4.35;100.00;101691.59;5178118;28;20507;-70
2022/12/05 04:47:09;;;;;;;39.78;28.05;;;;;;;4.28;100.00;101696.22;5195490;28;20046;-70
2022/12/05 04:49:42;;;;;;;38.90;28.30;;;;;;;4.22;100.00;101699.09;5195016;28;20109;-70
2022/12/05 04:52:14;;;;;;;40.45;29.75;;;;;;;4.21;100.00;101701.75;5195516;28;20062;-70
2022/12/05 04:54:52;;;;;;;42.45;28.50;;;;;;;4.25;100.00;101696.34;5195353;28;20158;-70
2022/12/05 04:57:25;;;;;;;42.75;27.90;;;;;;;4.27;100.00;101699.72;5192599;28;20077;-70
2022/12/05 04:59:56;;;;;;;38.97;28.30;;;;;;;4.24;100.00;101688.63;5194529;28;20542;-70
2022/12/05 05:02:37;;;;;;;40.65;26.70;;;;;;;4.30;100.00;101696.97;5193053;28;20030;-70
2022/12/05 05:05:11;;;;;;;40.47;28.13;;;;;;;4.25;100.00;101698.13;5193360;28;20118;-70
2022/12/05 05:07:52;;;;;;;38.92;27.35;;;;;;;4.32;100.00;101696.94;5194249;28;20026;-70
2022/12/05 05:10:36;;;;;;;36.65;26.67;;;;;;;4.34;100.00;101695.09;5185823;28;20716;-70
2022/12/05 05:13:07;;;;;;;39.40;28.00;;;;;;;4.25;100.00;101692.94;5177237;28;20411;-70
2022/12/05 05:15:38;;;;;;;39.08;28.13;;;;;;;4.26;100.00;101697.19;5192676;28;20030;-70
2022/12/05 05:18:10;;;;;;;38.28;26.80;;;;;;;4.28;100.00;101697.94;5192836;28;20756;-70
2022/12/05 05:20:41;;;;;;;39.13;26.90;;;;;;;4.30;100.00;101711.72;5194776;28;20041;-70
2022/12/05 05:23:13;;;;;;;41.00;27.23;;;;;;;4.29;100.00;101712.63;5192806;28;20093;-68
2022/12/05 05:25:44;;;;;;;39.03;26.48;;;;;;;4.27;100.00;101711.84;5195088;28;20037;-70
2022/12/05 05:28:15;;;;;;;37.28;27.10;;;;;;;4.30;100.00;101715.16;5194540;28;20494;-68
2022/12/05 05:30:47;;;;;;;40.17;27.23;;;;;;;4.30;100.00;101714.31;5193533;28;20053;-68
2022/12/05 05:33:18;;;;;;;39.63;27.17;;;;;;;4.30;100.00;101711.72;5194203;28;20026;-68
2022/12/05 05:35:50;;;;;;;38.08;25.55;;;;;;;4.31;100.00;101706.44;5194205;28;20113;-68
2022/12/05 05:38:21;;;;;;;37.03;27.50;;;;;;;4.31;100.00;101708.19;5193467;28;20030;-68
2022/12/05 05:40:52;;;;;;;39.78;27.48;;;;;;;4.32;100.00;101710.75;5193689;28;20729;-68
2022/12/05 05:43:23;;;;;;;36.03;25.85;;;;;;;4.33;100.00;101706.38;5194476;28;20057;-68
2022/12/05 05:45:55;;;;;;;35.08;26.17;;;;;;;4.33;100.00;101704.63;5194150;28;20085;-68
2022/12/05 05:48:26;;;;;;;40.33;26.58;;;;;;;4.36;100.00;101701.06;5193571;28;20072;-68
2022/12/05 05:50:58;;;;;;;37.63;25.15;;;;;;;4.31;100.00;101709.03;5194223;28;20036;-68
2022/12/05 05:53:30;;;;;;;36.65;26.20;;;;;;;4.33;100.00;101709.81;5193685;28;20061;-68
2022/12/05 05:56:03;;;;;;;33.20;24.00;;;;;;;4.32;100.00;101715.09;5190786;28;20064;-68
2022/12/05 05:58:35;;;;;;;35.10;24.55;;;;;;;4.36;100.00;101709.69;5194340;28;20626;-68
2022/12/05 06:01:12;;;;;;;36.08;23.65;;;;;;;4.33;100.00;101706.38;5193288;28;20121;-67
2022/12/05 06:03:43;;;;;;;36.17;25.05;;;;;;;4.33;100.00;101716.78;5190426;28;20062;-68
2022/12/05 06:06:16;;;;;;;36.30;25.98;;;;;;;4.36;100.00;101714.03;5192169;28;20065;-68
2022/12/05 06:08:47;;;;;;;37.92;26.63;;;;;;;4.36;100.00;101727.00;5170073;28;20476;-68
2022/12/05 06:11:24;;;;;;;33.17;24.02;;;;;;;4.38;100.00;101727.78;5191315;28;20038;-68
2022/12/05 06:13:59;;;;;;;33.55;24.05;;;;;;;4.40;100.00;101718.19;5194233;28;20387;-67
2022/12/05 06:16:31;;;;;;;33.05;25.13;;;;;;;4.44;100.00;101724.91;5193426;28;20476;-68
2022/12/05 06:19:02;;;;;;;30.67;23.17;;;;;;;4.48;100.00;101728.22;5193099;28;20165;-68
2022/12/05 06:21:33;;;;;;;34.22;24.35;;;;;;;4.47;100.00;101729.09;5192811;28;20471;-68
2022/12/05 06:24:05;;;;;;;34.40;24.88;;;;;;;4.46;100.00;101728.25;5194039;28;20408;-68
2022/12/05 06:26:36;;;;;;;35.55;24.67;;;;;;;4.51;100.00;101726.31;5193038;28;20500;-68
2022/12/05 06:29:08;;;;;;;37.35;25.58;;;;;;;4.54;100.00;101733.09;5195960;28;20092;-69
2022/12/05 06:31:40;;;;;;;37.42;25.35;;;;;;;4.51;100.00;101726.31;5197517;28;20492;-68
2022/12/05 06:34:11;;;;;;;32.05;23.35;;;;;;;4.54;100.00;101720.13;5197744;28;20388;-68
2022/12/05 06:36:43;;;;;;;31.08;23.70;;;;;;;4.56;100.00;101734.72;5197620;28;20030;-68
2022/12/05 06:39:14;;;;;;;36.65;25.13;;;;;;;4.58;100.00;101730.31;5197658;28;20022;-68
2022/12/05 06:41:45;;;;;;;34.63;24.33;;;;;;;4.60;100.00;101736.28;5197113;28;20030;-68
2022/12/05 06:44:16;;;;;;;34.03;23.48;;;;;;;4.58;100.00;101732.06;5195948;28;20041;-68
2022/12/05 06:46:48;;;;;;;32.63;22.98;;;;;;;4.55;100.00;101734.81;5197329;28;20029;-68
2022/12/05 06:49:20;;;;;;;32.75;22.45;;;;;;;4.54;100.00;101731.34;5194007;28;21377;-68
2022/12/05 06:51:52;;;;;;;32.13;24.40;;;;;;;4.57;100.00;101733.81;5196429;28;20030;-68
2022/12/05 06:54:24;;;;;;;32.60;22.95;;;;;;;4.54;100.00;101738.28;5197728;28;20018;-68
2022/12/05 06:56:55;;;;;;;32.75;23.35;;;;;;;4.56;100.00;101736.50;5196952;28;20045;-68
2022/12/05 06:59:27;;;;;;;31.42;23.77;;;;;;;4.58;100.00;101735.53;5196935;28;20062;-68
2022/12/05 07:01:59;;;;;;;33.90;23.02;;;;;;;4.55;100.00;101740.00;5196012;28;20029;-68
2022/12/05 07:04:30;;;;;;;31.67;23.85;;;;;;;4.55;100.00;101740.00;5197231;28;20125;-68
2022/12/05 07:07:01;;;;;;;31.65;23.60;;;;;;;4.58;100.00;101748.50;5196380;28;20458;-68
2022/12/05 07:09:46;;;;;;;30.75;22.98;;;;;;;4.53;100.00;101744.41;5197110;28;20459;-68
2022/12/05 07:12:18;;;;;;;29.45;22.75;;;;;;;4.56;100.00;101755.50;5195817;28;20387;-68
2022/12/05 07:14:49;;;;;;;30.33;22.95;;;;;;;4.59;100.00;101755.34;5196586;28;20030;-68
2022/12/05 07:17:21;;;;;;;29.40;22.52;;;;;;;4.58;100.00;101756.28;5195753;28;20030;-67
2022/12/05 07:19:52;;;;;;;28.25;21.10;;;;;;;4.61;100.00;101757.88;5196323;28;20415;-67
2022/12/05 07:22:23;;;;;;;34.20;22.73;;;;;;;4.64;100.00;101770.72;5196873;28;20417;-67
2022/12/05 07:24:54;;;;;;;30.33;21.90;;;;;;;4.64;100.00;101760.34;5196906;28;20037;-67
2022/12/05 07:27:26;;;;;;;31.52;22.92;;;;;;;4.67;100.00;101772.34;5196179;28;20037;-67
2022/12/05 07:29:57;;;;;;;28.65;21.08;;;;;;;4.67;100.00;101769.75;5196025;28;20471;-67
2022/12/05 07:32:33;;;;;;;27.02;20.08;;;;;;;4.75;100.00;101776.25;5194298;28;20034;-68
2022/12/05 07:35:04;;;;;;;28.83;22.33;;;;;;;4.64;100.00;101781.94;5196290;28;20507;-67
2022/12/05 07:37:36;;;;;;;26.00;20.15;;;;;;;4.66;100.00;101778.41;5194946;28;20027;-67
2022/12/05 07:40:07;;;;;;;30.60;21.38;;;;;;;4.67;100.00;101780.97;5195594;28;20062;-67
2022/12/05 07:42:39;;;;;;;29.42;21.70;;;;;;;4.68;100.00;101777.44;5195268;28;20145;-67
2022/12/05 07:45:10;;;;;;;27.23;20.30;;;;;;;4.68;100.00;101772.25;5196695;28;20037;-67
2022/12/05 07:47:41;;;;;;;27.55;20.65;;;;;;;4.71;100.00;101776.47;5196253;28;20049;-67
2022/12/05 07:50:14;;;;;;;27.15;21.20;;;;;;;4.68;100.00;101777.44;5178606;28;20502;-67
2022/12/05 07:52:45;;;;;;;27.55;21.40;;;;;;;4.64;100.00;101781.94;5195297;28;20041;-67
2022/12/05 07:55:16;;;;;;;28.48;19.67;;;;;;;4.64;100.00;101779.34;5196006;28;20030;-67
2022/12/05 07:57:47;;;;;;;29.65;20.77;;;;;;;4.80;100.00;101783.84;5196189;28;20058;-67
2022/12/05 08:00:19;;;;;;;30.63;20.90;;;;;;;4.77;100.00;101787.44;5195641;28;20117;-67
2022/12/05 08:02:51;;;;;;;25.25;19.60;;;;;;;4.71;100.00;101784.28;5195730;28;20468;-67
2022/12/05 08:05:22;;;;;;;30.10;21.63;;;;;;;4.75;100.00;101785.81;5195746;28;20033;-67
2022/12/05 08:07:53;;;;;;;27.73;20.63;;;;;;;4.79;100.00;101789.94;5195370;28;20081;-67
2022/12/05 08:10:24;;;;;;;24.80;20.23;;;;;;;4.78;100.00;101796.91;5195716;28;20034;-67
2022/12/05 08:12:56;;;;;;;27.08;20.38;;;;;;;4.79;100.00;101797.75;5195579;28;20092;-67
2022/12/05 08:15:27;;;;;;;29.65;21.33;;;;;;;4.74;100.00;101800.56;5195740;28;20038;-67
2022/12/05 08:17:58;;;;;;;29.23;21.17;;;;;;;4.75;100.00;101806.56;5195688;28;20027;-67
2022/12/05 08:20:30;;;;;;;29.55;20.75;;;;;;;4.75;100.00;101809.19;5195324;28;20084;-67
2022/12/05 08:23:01;;;;;;;29.77;22.42;;;;;;;4.75;100.00;101814.38;5196138;28;20029;-67
2022/12/05 08:25:32;;;;;;;25.40;20.58;;;;;;;4.73;100.00;101798.84;5194887;28;20069;-67
2022/12/05 08:28:04;;;;;;;29.98;21.25;;;;;;;4.77;100.00;101812.53;5195453;28;20026;-67
2022/12/05 08:30:35;;;;;;;29.02;20.92;;;;;;;4.79;100.00;101813.31;5194910;28;20042;-67
2022/12/05 08:33:06;;;;;;;26.23;20.52;;;;;;;4.79;100.00;101814.16;5195593;28;20014;-67
2022/12/05 08:35:37;;;;;;;27.63;21.30;;;;;;;4.79;100.00;101824.53;5194832;28;20062;-67
2022/12/05 08:38:09;;;;;;;26.88;20.50;;;;;;;4.80;100.00;101823.63;5195206;28;20052;-67
2022/12/05 08:40:40;;;;;;;29.02;20.58;;;;;;;4.77;100.00;101822.91;5195333;28;20042;-67
2022/12/05 08:43:11;;;;;;;27.65;20.75;;;;;;;4.77;100.00;101828.97;5194480;28;20099;-67
2022/12/05 08:45:50;;;;;;;26.80;21.15;;;;;;;4.89;100.00;101827.56;5195495;28;20027;-67
2022/12/05 08:48:22;;;;;;;27.90;21.70;;;;;;;4.77;100.00;101818.59;5194845;28;20039;-67
2022/12/05 08:50:53;;;;;;;31.00;21.20;;;;;;;4.74;100.00;101812.69;5195325;28;20386;-67
2022/12/05 08:53:25;;;;;;;27.77;20.27;;;;;;;4.85;100.00;101820.84;5193473;28;20034;-67
2022/12/05 08:56:01;;;;;;;26.10;20.42;;;;;;;4.92;100.00;101819.63;5176566;28;20026;-67
2022/12/05 08:58:32;;;;;;;28.15;20.17;;;;;;;4.84;100.00;101824.31;5194411;28;20106;-67
2022/12/05 09:01:21;;;;;;;26.90;20.20;;;;;;;5.05;100.00;101825.97;5194474;28;20030;-67
2022/12/05 09:03:52;;;;;;;28.98;20.30;;;;;;;4.88;100.00;101831.06;5194166;28;20026;-67
2022/12/05 09:06:24;;;;;;;29.58;20.60;;;;;;;4.93;100.00;101834.31;5194755;28;20026;-67
2022/12/05 09:08:58;;;;;;;29.92;21.63;;;;;;;4.93;100.00;101836.91;5194644;28;20041;-67
2022/12/05 09:11:33;;;;;;;26.27;20.50;;;;;;;4.94;100.00;101836.00;5194307;28;20030;-67
2022/12/05 09:14:05;;;;;;;26.35;21.10;;;;;;;4.93;100.00;101838.66;5194087;28;20428;-67
2022/12/05 09:16:37;;;;;;;30.58;22.13;;;;;;;4.93;100.00;101844.69;5194313;28;20030;-67
2022/12/05 09:19:14;;;;;;;27.13;21.13;;;;;;;5.03;100.00;101848.53;5194603;28;20018;-67
2022/12/05 09:21:45;;;;;;;29.17;22.02;;;;;;;4.98;100.00;101847.91;5192590;28;20912;-67
2022/12/05 09:24:17;;;;;;;28.50;20.67;;;;;;;5.00;100.00;101840.91;5193934;28;20018;-67
2022/12/05 09:26:48;;;;;;;28.95;21.13;;;;;;;5.02;100.00;101846.03;5193215;28;20022;-67
2022/12/05 09:29:19;;;;;;;25.55;21.33;;;;;;;5.01;100.00;101850.38;5193982;28;20041;-67
2022/12/05 09:31:52;;;;;;;29.17;21.17;;;;;;;5.04;100.00;101865.84;5194663;28;20587;-67
2022/12/05 09:34:24;;;;;;;29.10;21.05;;;;;;;5.05;100.00;101856.28;5193848;28;20029;-67
2022/12/05 09:36:56;;;;;;;25.55;20.33;;;;;;;5.04;100.00;101865.84;5193684;28;20483;-67
2022/12/05 09:39:28;;;;;;;27.10;20.27;;;;;;;5.00;100.00;101856.50;5195498;28;20014;-67
2022/12/05 09:42:06;;;;;;;27.25;20.75;;;;;;;5.08;100.00;101864.78;5195373;28;20108;-67
2022/12/05 09:44:46;;;;;;;27.02;20.23;;;;;;;5.09;100.00;101863.88;5194122;28;20054;-67
2022/12/05 09:47:34;;;;;;;25.15;20.58;;;;;;;5.21;100.00;101870.25;5194859;28;20033;-67
2022/12/05 09:50:15;;;;;;;24.52;19.67;;;;;;;5.17;100.00;101866.09;5194287;28;20034;-67
2022/12/05 09:52:58;;;;;;;26.50;20.33;;;;;;;5.21;100.00;101872.00;5177311;28;20041;-68
2022/12/05 09:56:08;;;;;;;26.88;19.15;;;;;;;5.37;100.00;101875.56;5194246;28;20389;-67
2022/12/05 09:58:43;;;;;;;23.38;19.15;;;;;;;5.14;100.00;101868.84;5191614;28;20074;-67
2022/12/05 10:01:23;;;;;;;25.20;19.15;;;;;;;5.21;100.00;101874.59;5193288;28;20113;-67
2022/12/05 10:04:23;;;;;;;23.15;16.77;;;;;;;5.21;100.00;101870.25;5193003;28;20029;-67
2022/12/05 10:07:16;;;;;;;24.20;18.17;;;;;;;5.27;100.00;101867.38;5191689;28;20033;-68
2022/12/05 10:09:53;;;;;;;24.70;16.77;;;;;;;5.06;100.00;101863.16;5190033;28;20018;-68
2022/12/05 10:12:39;;;;;;;21.73;16.67;;;;;;;5.20;100.00;101875.53;5194043;28;20391;-68
2022/12/05 10:15:28;;;;;;;21.95;16.52;;;;;;;5.18;100.00;101870.38;5193814;28;20680;-68
2022/12/05 10:18:07;;;;;;;21.58;16.58;;;;;;;5.22;100.00;101871.09;5193780;28;20025;-68
2022/12/05 10:20:48;;;;;;;21.13;16.20;;;;;;;5.22;100.00;101863.28;5193277;28;20086;-68
2022/12/05 10:23:31;;;;;;;19.88;16.13;;;;;;;4.98;100.00;101839.28;5193238;28;20023;-68
2022/12/05 10:26:10;;;;;;;19.20;15.23;;;;;;;5.25;100.00;101865.75;5193291;28;20096;-68
2022/12/05 10:28:50;;;;;;;17.38;13.70;;;;;;;5.26;100.00;101857.03;5192523;28;20073;-67
2022/12/05 10:31:25;;;;;;;17.42;14.02;;;;;;;5.19;100.00;101874.69;5162172;28;20030;-68
2022/12/05 10:34:03;;;;;;;16.58;13.38;;;;;;;5.22;100.00;101869.31;5192642;28;20057;-68
2022/12/05 10:36:34;;;;;;;17.58;14.30;;;;;;;5.14;100.00;101871.44;5190269;28;20092;-68
2022/12/05 10:39:06;;;;;;;17.45;14.07;;;;;;;5.17;100.00;101862.66;5193519;28;20480;-68
2022/12/05 10:41:37;;;;;;;17.98;15.52;;;;;;;5.20;100.00;101870.34;5193327;28;20034;-68
2022/12/05 10:44:09;;;;;;;16.60;13.18;;;;;;;5.23;100.00;101876.22;5193140;28;20521;-68
2022/12/05 10:46:40;;;;;;;18.48;14.60;;;;;;;5.25;100.00;101870.94;5192965;28;20030;-68
2022/12/05 10:49:12;;;;;;;15.52;13.20;;;;;;;5.22;100.00;101864.13;5193281;28;20050;-68
2022/12/05 10:51:43;;;;;;;17.35;14.20;;;;;;;5.25;100.00;101878.75;5193916;28;20034;-68
2022/12/05 10:54:24;;;;;;;14.30;12.60;;;;;;;5.33;100.00;101869.69;5192379;28;20041;-68
2022/12/05 10:56:56;;;;;;;16.40;12.35;;;;;;;5.21;100.00;101874.59;5193273;28;20104;-68
2022/12/05 10:59:45;;;;;;;16.95;13.50;;;;;;;5.41;100.00;101874.50;5193656;28;20030;-68
2022/12/05 11:02:26;;;;;;;15.75;12.27;;;;;;;5.38;100.00;101874.69;5194431;28;20403;-68
2022/12/05 11:04:58;;;;;;;15.90;12.88;;;;;;;5.26;100.00;101876.06;5193391;28;20030;-68
2022/12/05 11:07:30;;;;;;;15.80;12.60;;;;;;;5.26;100.00;101864.84;5192162;28;20031;-68
2022/12/05 11:10:18;;;;;;;13.98;12.00;;;;;;;5.42;100.00;101868.44;5194135;28;20026;-68
2022/12/05 11:12:50;;;;;;;15.57;12.52;;;;;;;5.33;100.00;101864.47;5193602;28;20146;-68
2022/12/05 11:15:24;;;;;;;15.68;12.25;;;;;;;5.31;100.00;101862.88;5194296;28;20018;-68
2022/12/05 11:18:16;;;;;;;13.85;11.90;;;;;;;5.48;100.00;101862.91;5197618;28;20511;-68
2022/12/05 11:20:47;;;;;;;14.73;11.95;;;;;;;5.32;100.00;101854.16;5197544;28;20026;-68
2022/12/05 11:23:29;;;;;;;14.50;11.68;;;;;;;5.48;100.00;101855.13;5197359;28;20087;-68
2022/12/05 11:26:00;;;;;;;14.20;12.05;;;;;;;5.37;100.00;101857.38;5197396;28;20049;-68
2022/12/05 11:28:36;;;;;;;14.30;11.50;;;;;;;5.48;100.00;101854.28;5196781;28;20026;-68
2022/12/05 11:31:10;;;;;;;14.43;11.80;;;;;;;5.54;100.00;101861.81;5179876;28;20022;-68
2022/12/05 11:33:42;;;;;;;14.20;11.30;;;;;;;5.43;100.00;101859.72;5197625;28;20030;-68
2022/12/05 11:36:22;;;;;;;11.90;10.57;;;;;;;5.59;100.00;101859.81;5196622;28;20476;-68
2022/12/05 11:38:54;;;;;;;14.10;11.45;;;;;;;5.46;100.00;101862.16;5196348;28;20120;-68
2022/12/05 11:41:38;;;;;;;13.13;11.70;;;;;;;5.50;100.00;101863.72;5197318;28;20169;-68
2022/12/05 11:44:24;;;;;;;;;;;;;;;6.07;100.00;101854.03;5196278;28;20030;-68
2022/12/05 11:47:01;;;;;;;12.90;10.68;;;;;;;5.67;100.00;101854.25;5195974;28;20182;-68
2022/12/05 11:49:48;;;;;;;13.27;9.90;;;;;;;5.55;100.00;101856.53;5194530;28;20054;-68
2022/12/05 11:52:46;;;;;;;10.85;9.35;;;;;;;5.70;100.00;101854.13;5195667;28;20026;-68
2022/12/05 11:55:49;;;;;;;12.18;10.52;;;;;;;5.83;100.00;101849.97;5195598;28;20030;-68